createdAt,value
2019-01-05T00:00:08.319Z,1015.37
2019-01-05T00:01:08.326Z,1015.40
2019-01-05T00:02:08.297Z,1015.33
2019-01-05T00:03:08.283Z,1015.39
2019-01-05T00:04:08.274Z,1015.42
2019-01-05T00:05:08.275Z,1015.39
2019-01-05T00:06:08.300Z,1015.42
2019-01-05T00:07:08.244Z,1015.38
2019-01-05T00:08:08.234Z,1015.36
2019-01-05T00:09:08.228Z,1015.36
2019-01-05T00:10:08.227Z,1015.30
2019-01-05T00:11:08.215Z,1015.33
2019-01-05T00:12:08.214Z,1015.34
2019-01-05T00:13:08.183Z,1015.29
2019-01-05T00:14:08.168Z,1015.38
2019-01-05T00:15:08.178Z,1015.30
2019-01-05T00:16:08.153Z,1015.33
2019-01-05T00:17:08.143Z,1015.34
2019-01-05T00:18:08.133Z,1015.37
2019-01-05T00:19:08.121Z,1015.35
2019-01-05T00:20:08.118Z,1015.37
2019-01-05T00:21:08.095Z,1015.30
2019-01-05T00:22:08.089Z,1015.34
2019-01-05T00:23:08.074Z,1015.37
2019-01-05T00:24:08.574Z,1015.31
2019-01-05T00:25:09.653Z,1015.31
2019-01-05T00:26:08.044Z,1015.27
2019-01-05T00:27:08.032Z,1015.27
2019-01-05T00:28:08.024Z,1015.32
2019-01-05T00:29:08.007Z,1015.29
2019-01-05T00:30:08.009Z,1015.26
2019-01-05T00:31:07.991Z,1015.21
2019-01-05T00:32:07.976Z,1015.18
2019-01-05T00:33:07.973Z,1015.25
2019-01-05T00:34:07.961Z,1015.18
2019-01-05T00:35:07.959Z,1015.18
2019-01-05T00:36:07.933Z,1015.18
2019-01-05T00:37:07.926Z,1015.14
2019-01-05T00:38:07.917Z,1015.13
2019-01-05T00:39:07.907Z,1015.03
2019-01-05T00:40:08.091Z,1015.04
2019-01-05T00:41:07.888Z,1015.01
2019-01-05T00:42:07.881Z,1015.00
2019-01-05T00:43:07.864Z,1015.04
2019-01-05T00:44:07.857Z,1015.01
2019-01-05T00:45:07.840Z,1014.98
2019-01-05T00:46:07.849Z,1015.00
2019-01-05T00:47:07.828Z,1014.93
2019-01-05T00:48:07.805Z,1014.87
2019-01-05T00:49:07.803Z,1014.88
2019-01-05T00:50:07.793Z,1014.86
2019-01-05T00:51:07.799Z,1014.87
2019-01-05T00:52:07.771Z,1014.82
2019-01-05T00:53:07.757Z,1014.85
2019-01-05T00:54:07.753Z,1014.76
2019-01-05T00:55:07.738Z,1014.73
2019-01-05T00:56:07.750Z,1014.68
2019-01-05T00:57:07.724Z,1014.72
2019-01-05T00:58:07.707Z,1014.65
2019-01-05T00:59:07.699Z,1014.62
2019-01-05T01:00:07.688Z,1014.61
2019-01-05T01:01:07.690Z,1014.65
2019-01-05T01:02:07.671Z,1014.66
2019-01-05T01:03:07.671Z,1014.57
2019-01-05T01:04:07.647Z,1014.54
2019-01-05T01:05:07.633Z,1014.59
2019-01-05T01:06:07.661Z,1014.57
2019-01-05T01:07:07.618Z,1014.55
2019-01-05T01:08:07.609Z,1014.57
2019-01-05T01:09:07.599Z,1014.59
2019-01-05T01:10:07.580Z,1014.45
2019-01-05T01:11:07.575Z,1014.48
2019-01-05T01:12:07.577Z,1014.44
2019-01-05T01:13:07.556Z,1014.39
2019-01-05T01:14:07.553Z,1014.34
2019-01-05T01:15:07.539Z,1014.32
2019-01-05T01:16:07.523Z,1014.32
2019-01-05T01:17:07.535Z,1014.29
2019-01-05T01:18:07.500Z,1014.24
2019-01-05T01:19:07.498Z,1014.30
2019-01-05T01:20:07.488Z,1014.32
2019-01-05T01:21:07.469Z,1014.27
2019-01-05T01:22:07.474Z,1014.25
2019-01-05T01:23:07.451Z,1014.24
2019-01-05T01:24:07.435Z,1014.23
2019-01-05T01:25:07.427Z,1014.21
2019-01-05T01:26:07.420Z,1014.22
2019-01-05T01:27:07.419Z,1014.24
2019-01-05T01:28:07.402Z,1014.15
2019-01-05T01:29:07.394Z,1014.11
2019-01-05T01:30:07.373Z,1014.14
2019-01-05T01:31:07.364Z,1014.14
2019-01-05T01:32:07.363Z,1014.09
2019-01-05T01:33:07.340Z,1014.12
2019-01-05T01:34:07.331Z,1014.09
2019-01-05T01:35:07.321Z,1014.11
2019-01-05T01:36:07.314Z,1014.15
2019-01-05T01:37:07.306Z,1014.05
2019-01-05T01:38:07.291Z,1014.07
2019-01-05T01:39:07.288Z,1014.02
2019-01-05T01:40:07.267Z,1014.04
2019-01-05T01:41:07.253Z,1014.07
2019-01-05T01:42:07.261Z,1013.97
2019-01-05T01:43:07.227Z,1014.01
2019-01-05T01:44:07.218Z,1013.93
2019-01-05T01:45:07.211Z,1013.94
2019-01-05T01:46:07.206Z,1013.87
2019-01-05T01:47:07.203Z,1013.80
2019-01-05T01:48:07.174Z,1013.86
2019-01-05T01:49:07.166Z,1013.81
2019-01-05T01:50:07.156Z,1013.83
2019-01-05T01:51:07.148Z,1013.80
2019-01-05T01:52:07.157Z,1013.81
2019-01-05T01:53:07.124Z,1013.81
2019-01-05T01:54:07.110Z,1013.78
2019-01-05T01:55:07.100Z,1013.81
2019-01-05T01:56:07.088Z,1013.78
2019-01-05T01:57:07.107Z,1013.77
2019-01-05T01:58:07.070Z,1013.80
2019-01-05T01:59:07.055Z,1013.79
2019-01-05T02:00:07.048Z,1013.72
2019-01-05T02:01:07.035Z,1013.70
2019-01-05T02:02:07.111Z,1013.72
2019-01-05T02:03:07.012Z,1013.70
2019-01-05T02:04:07.006Z,1013.68
2019-01-05T02:05:06.993Z,1013.71
2019-01-05T02:06:06.986Z,1013.68
2019-01-05T02:07:06.989Z,1013.65
2019-01-05T02:08:06.959Z,1013.64
2019-01-05T02:09:06.955Z,1013.61
2019-01-05T02:10:06.937Z,1013.56
2019-01-05T02:11:06.925Z,1013.63
2019-01-05T02:12:06.932Z,1013.58
2019-01-05T02:13:06.913Z,1013.58
2019-01-05T02:14:06.903Z,1013.55
2019-01-05T02:15:06.887Z,1013.52
2019-01-05T02:16:06.876Z,1013.51
2019-01-05T02:17:06.884Z,1013.49
2019-01-05T02:18:06.857Z,1013.47
2019-01-05T02:19:06.848Z,1013.45
2019-01-05T02:20:06.840Z,1013.43
2019-01-05T02:21:06.819Z,1013.37
2019-01-05T02:22:06.830Z,1013.30
2019-01-05T02:23:06.802Z,1013.25
2019-01-05T02:24:06.789Z,1013.25
2019-01-05T02:25:06.774Z,1013.22
2019-01-05T02:26:06.768Z,1013.18
2019-01-05T02:27:06.773Z,1013.20
2019-01-05T02:28:06.743Z,1013.18
2019-01-05T02:29:06.739Z,1013.15
2019-01-05T02:30:06.732Z,1013.14
2019-01-05T02:31:06.733Z,1013.11
2019-01-05T02:32:06.747Z,1013.10
2019-01-05T02:33:06.718Z,1013.07
2019-01-05T02:34:06.690Z,1013.07
2019-01-05T02:35:06.675Z,1013.08
2019-01-05T02:36:06.669Z,1013.14
2019-01-05T02:37:06.655Z,1013.11
2019-01-05T02:38:06.655Z,1013.16
2019-01-05T02:39:06.632Z,1013.06
2019-01-05T02:40:06.625Z,1013.09
2019-01-05T02:41:06.607Z,1013.11
2019-01-05T02:42:06.598Z,1013.09
2019-01-05T02:43:06.613Z,1013.09
2019-01-05T02:44:06.581Z,1013.08
2019-01-05T02:45:06.592Z,1013.02
2019-01-05T02:46:06.560Z,1013.02
2019-01-05T02:47:06.550Z,1012.96
2019-01-05T02:48:06.555Z,1012.85
2019-01-05T02:49:06.523Z,1012.91
2019-01-05T02:50:06.514Z,1012.94
2019-01-05T02:51:06.507Z,1012.93
2019-01-05T02:52:06.494Z,1012.92
2019-01-05T02:53:06.506Z,1012.82
2019-01-05T02:54:06.470Z,1012.88
2019-01-05T02:55:06.464Z,1012.79
2019-01-05T02:56:06.456Z,1012.79
2019-01-05T02:57:06.441Z,1012.75
2019-01-05T02:58:06.447Z,1012.71
2019-01-05T02:59:06.425Z,1012.72
2019-01-05T03:00:06.411Z,1012.66
2019-01-05T03:01:06.399Z,1012.63
2019-01-05T03:02:06.392Z,1012.57
2019-01-05T03:03:06.400Z,1012.63
2019-01-05T03:04:06.365Z,1012.62
2019-01-05T03:05:06.363Z,1012.61
2019-01-05T03:06:06.352Z,1012.57
2019-01-05T03:07:06.339Z,1012.59
2019-01-05T03:08:06.326Z,1012.57
2019-01-05T03:09:06.336Z,1012.62
2019-01-05T03:10:06.314Z,1012.63
2019-01-05T03:11:06.307Z,1012.57
2019-01-05T03:12:06.290Z,1012.58
2019-01-05T03:13:06.280Z,1012.58
2019-01-05T03:14:06.280Z,1012.58
2019-01-05T03:15:06.259Z,1012.57
2019-01-05T03:16:06.244Z,1012.53
2019-01-05T03:17:06.244Z,1012.54
2019-01-05T03:18:06.225Z,1012.48
2019-01-05T03:19:06.229Z,1012.55
2019-01-05T03:20:06.207Z,1012.55
2019-01-05T03:21:06.201Z,1012.43
2019-01-05T03:22:06.179Z,1012.48
2019-01-05T03:23:06.181Z,1012.43
2019-01-05T03:24:06.174Z,1012.42
2019-01-05T03:25:06.149Z,1012.37
2019-01-05T03:26:06.137Z,1012.35
2019-01-05T03:27:06.131Z,1012.39
2019-01-05T03:28:06.118Z,1012.40
2019-01-05T03:29:06.118Z,1012.35
2019-01-05T03:30:06.100Z,1012.35
2019-01-05T03:31:06.108Z,1012.40
2019-01-05T03:32:06.080Z,1012.36
2019-01-05T03:33:06.073Z,1012.32
2019-01-05T03:34:06.070Z,1012.40
2019-01-05T03:35:06.047Z,1012.31
2019-01-05T03:36:06.039Z,1012.29
2019-01-05T03:37:06.031Z,1012.27
2019-01-05T03:38:06.012Z,1012.26
2019-01-05T03:39:06.023Z,1012.28
2019-01-05T03:40:05.991Z,1012.23
2019-01-05T03:41:05.984Z,1012.22
2019-01-05T03:42:05.973Z,1012.28
2019-01-05T03:43:05.965Z,1012.30
2019-01-05T03:44:05.966Z,1012.21
2019-01-05T03:45:05.943Z,1012.20
2019-01-05T03:46:05.945Z,1012.22
2019-01-05T03:47:05.925Z,1012.19
2019-01-05T03:48:05.934Z,1012.26
2019-01-05T03:49:05.926Z,1012.31
2019-01-05T03:50:05.889Z,1012.20
2019-01-05T03:51:05.881Z,1012.23
2019-01-05T03:52:05.873Z,1012.29
2019-01-05T03:53:05.858Z,1012.22
2019-01-05T03:54:05.863Z,1012.32
2019-01-05T03:55:05.837Z,1012.31
2019-01-05T03:56:05.823Z,1012.25
2019-01-05T03:57:05.816Z,1012.25
2019-01-05T03:58:05.805Z,1012.27
2019-01-05T03:59:05.816Z,1012.24
2019-01-05T04:00:05.789Z,1012.26
2019-01-05T04:01:05.780Z,1012.24
2019-01-05T04:02:05.770Z,1012.19
2019-01-05T04:03:05.753Z,1012.20
2019-01-05T04:04:05.769Z,1012.26
2019-01-05T04:05:05.733Z,1012.12
2019-01-05T04:06:05.725Z,1012.12
2019-01-05T04:07:05.715Z,1012.14
2019-01-05T04:08:05.702Z,1012.16
2019-01-05T04:09:05.692Z,1012.12
2019-01-05T04:10:05.699Z,1012.12
2019-01-05T04:11:05.670Z,1012.08
2019-01-05T04:12:05.663Z,1012.17
2019-01-05T04:13:05.675Z,1012.13
2019-01-05T04:14:05.644Z,1012.19
2019-01-05T04:15:05.647Z,1012.14
2019-01-05T04:16:05.614Z,1012.15
2019-01-05T04:17:05.614Z,1012.12
2019-01-05T04:18:05.689Z,1012.11
2019-01-05T04:19:05.587Z,1012.07
2019-01-05T04:20:05.599Z,1012.11
2019-01-05T04:21:05.563Z,1012.07
2019-01-05T04:22:05.566Z,1012.05
2019-01-05T04:23:05.542Z,1012.02
2019-01-05T04:24:05.533Z,1012.04
2019-01-05T04:25:05.539Z,1012.07
2019-01-05T04:26:05.517Z,1012.05
2019-01-05T04:27:05.502Z,1012.09
2019-01-05T04:28:05.503Z,1012.06
2019-01-05T04:29:05.480Z,1012.05
2019-01-05T04:30:05.484Z,1012.03
2019-01-05T04:31:05.465Z,1012.05
2019-01-05T04:32:05.449Z,1012.04
2019-01-05T04:33:05.439Z,1012.05
2019-01-05T04:34:05.430Z,1012.07
2019-01-05T04:35:05.437Z,1012.04
2019-01-05T04:36:05.411Z,1012.01
2019-01-05T04:37:05.393Z,1012.06
2019-01-05T04:38:08.253Z,1012.08
2019-01-05T04:39:05.382Z,1012.09
2019-01-05T04:40:05.365Z,1012.09
2019-01-05T04:41:05.370Z,1012.10
2019-01-05T04:42:05.350Z,1012.03
2019-01-05T04:43:05.336Z,1012.06
2019-01-05T04:44:05.324Z,1012.05
2019-01-05T04:45:05.316Z,1012.08
2019-01-05T04:46:05.318Z,1012.06
2019-01-05T04:47:05.291Z,1012.00
2019-01-05T04:48:05.279Z,1012.00
2019-01-05T04:49:05.267Z,1011.98
2019-01-05T04:50:05.272Z,1012.04
2019-01-05T04:51:05.263Z,1012.03
2019-01-05T04:52:05.239Z,1012.09
2019-01-05T04:53:05.237Z,1011.99
2019-01-05T04:54:05.224Z,1011.98
2019-01-05T04:55:05.207Z,1012.02
2019-01-05T04:56:05.216Z,1012.05
2019-01-05T04:57:05.201Z,1012.07
2019-01-05T04:58:05.176Z,1012.11
2019-01-05T04:59:05.166Z,1012.12
2019-01-05T05:00:05.159Z,1012.15
2019-01-05T05:01:05.162Z,1012.04
2019-01-05T05:02:05.141Z,1012.00
2019-01-05T05:03:05.124Z,1012.02
2019-01-05T05:04:05.116Z,1012.01
2019-01-05T05:05:05.108Z,1012.06
2019-01-05T05:06:05.107Z,1012.06
2019-01-05T05:07:05.087Z,1012.03
2019-01-05T05:08:05.074Z,1012.07
2019-01-05T05:09:05.059Z,1012.07
2019-01-05T05:10:05.052Z,1012.08
2019-01-05T05:11:05.051Z,1012.15
2019-01-05T05:12:05.034Z,1012.05
2019-01-05T05:13:05.019Z,1012.04
2019-01-05T05:14:05.007Z,1012.02
2019-01-05T05:15:05.001Z,1012.02
2019-01-05T05:16:05.003Z,1012.04
2019-01-05T05:17:04.977Z,1012.02
2019-01-05T05:18:04.969Z,1011.98
2019-01-05T05:19:04.958Z,1012.07
2019-01-05T05:20:04.954Z,1011.95
2019-01-05T05:21:04.954Z,1012.04
2019-01-05T05:22:04.926Z,1012.01
2019-01-05T05:23:04.921Z,1012.00
2019-01-05T05:24:04.906Z,1012.05
2019-01-05T05:25:04.892Z,1012.03
2019-01-05T05:26:04.902Z,1012.02
2019-01-05T05:27:04.882Z,1012.07
2019-01-05T05:28:04.863Z,1012.08
2019-01-05T05:29:04.856Z,1012.05
2019-01-05T05:30:04.839Z,1012.04
2019-01-05T05:31:04.842Z,1012.00
2019-01-05T05:32:04.820Z,1011.99
2019-01-05T05:33:04.811Z,1012.00
2019-01-05T05:34:04.803Z,1011.97
2019-01-05T05:35:04.793Z,1012.02
2019-01-05T05:36:04.803Z,1012.00
2019-01-05T05:37:04.771Z,1012.02
2019-01-05T05:38:04.767Z,1011.96
2019-01-05T05:39:04.750Z,1012.04
2019-01-05T05:40:04.748Z,1012.08
2019-01-05T05:41:04.744Z,1012.00
2019-01-05T05:42:04.721Z,1012.02
2019-01-05T05:43:04.712Z,1011.94
2019-01-05T05:44:04.710Z,1011.99
2019-01-05T05:45:04.692Z,1011.93
2019-01-05T05:46:04.691Z,1011.89
2019-01-05T05:47:04.664Z,1011.98
2019-01-05T05:48:04.651Z,1012.04
2019-01-05T05:49:04.642Z,1011.98
2019-01-05T05:50:04.632Z,1012.00
2019-01-05T05:51:04.637Z,1012.02
2019-01-05T05:52:04.611Z,1012.08
2019-01-05T05:53:04.603Z,1012.02
2019-01-05T05:54:04.593Z,1012.02
2019-01-05T05:55:04.599Z,1012.01
2019-01-05T05:56:04.597Z,1012.02
2019-01-05T05:57:04.555Z,1011.98
2019-01-05T05:58:04.553Z,1011.94
2019-01-05T05:59:04.543Z,1011.93
2019-01-05T06:00:04.529Z,1011.89
2019-01-05T06:01:04.518Z,1011.85
2019-01-05T06:02:04.525Z,1011.84
2019-01-05T06:03:04.506Z,1011.83
2019-01-05T06:04:04.488Z,1011.89
2019-01-05T06:05:04.475Z,1011.94
2019-01-05T06:06:04.471Z,1011.85
2019-01-05T06:07:04.468Z,1011.91
2019-01-05T06:08:04.448Z,1011.91
2019-01-05T06:09:04.434Z,1011.94
2019-01-05T06:10:04.426Z,1011.91
2019-01-05T06:11:04.425Z,1011.92
2019-01-05T06:12:04.420Z,1011.96
2019-01-05T06:13:04.392Z,1011.99
2019-01-05T06:14:04.387Z,1012.11
2019-01-05T06:15:04.371Z,1012.07
2019-01-05T06:16:04.360Z,1012.10
2019-01-05T06:17:04.364Z,1012.14
2019-01-05T06:18:04.340Z,1012.11
2019-01-05T06:19:04.333Z,1012.09
2019-01-05T06:20:04.323Z,1012.08
2019-01-05T06:21:04.316Z,1012.08
2019-01-05T06:22:04.311Z,1012.09
2019-01-05T06:23:04.292Z,1012.13
2019-01-05T06:24:04.275Z,1012.09
2019-01-05T06:25:04.268Z,1012.04
2019-01-05T06:26:04.257Z,1012.05
2019-01-05T06:27:04.263Z,1012.02
2019-01-05T06:28:04.259Z,1012.06
2019-01-05T06:29:04.224Z,1012.08
2019-01-05T06:30:04.215Z,1012.03
2019-01-05T06:31:04.202Z,1012.16
2019-01-05T06:32:04.205Z,1012.11
2019-01-05T06:33:04.184Z,1012.14
2019-01-05T06:34:04.176Z,1012.17
2019-01-05T06:35:04.167Z,1012.21
2019-01-05T06:36:04.156Z,1012.22
2019-01-05T06:37:04.157Z,1012.17
2019-01-05T06:38:04.130Z,1012.22
2019-01-05T06:39:04.121Z,1012.24
2019-01-05T06:40:04.119Z,1012.23
2019-01-05T06:41:04.105Z,1012.22
2019-01-05T06:42:04.104Z,1012.23
2019-01-05T06:43:04.079Z,1012.28
2019-01-05T06:44:04.075Z,1012.13
2019-01-05T06:45:04.062Z,1012.22
2019-01-05T06:46:04.055Z,1012.15
2019-01-05T06:47:04.069Z,1012.18
2019-01-05T06:48:04.024Z,1012.16
2019-01-05T06:49:04.019Z,1012.18
2019-01-05T06:50:04.012Z,1012.17
2019-01-05T06:51:03.997Z,1012.17
2019-01-05T06:52:03.987Z,1012.13
2019-01-05T06:53:03.992Z,1012.24
2019-01-05T06:54:03.974Z,1012.32
2019-01-05T06:55:03.958Z,1012.41
2019-01-05T06:56:03.947Z,1012.48
2019-01-05T06:57:03.935Z,1012.45
2019-01-05T06:58:03.936Z,1012.48
2019-01-05T06:59:03.919Z,1012.57
2019-01-05T07:00:03.911Z,1012.54
2019-01-05T07:01:03.893Z,1012.61
2019-01-05T07:02:03.880Z,1012.63
2019-01-05T07:03:03.967Z,1012.66
2019-01-05T07:04:03.860Z,1012.63
2019-01-05T07:05:03.853Z,1012.73
2019-01-05T07:06:03.839Z,1012.77
2019-01-05T07:07:03.827Z,1012.83
2019-01-05T07:08:03.833Z,1012.79
2019-01-05T07:09:03.809Z,1012.77
2019-01-05T07:10:03.798Z,1012.82
2019-01-05T07:11:03.791Z,1012.84
2019-01-05T07:12:03.786Z,1012.84
2019-01-05T07:13:03.784Z,1012.83
2019-01-05T07:14:03.755Z,1012.87
2019-01-05T07:15:03.747Z,1012.92
2019-01-05T07:16:03.732Z,1012.90
2019-01-05T07:17:03.726Z,1012.87
2019-01-05T07:18:03.732Z,1012.92
2019-01-05T07:19:03.704Z,1012.94
2019-01-05T07:20:03.692Z,1012.93
2019-01-05T07:21:03.688Z,1012.99
2019-01-05T07:22:03.674Z,1012.91
2019-01-05T07:23:03.684Z,1012.88
2019-01-05T07:24:03.653Z,1012.95
2019-01-05T07:25:03.645Z,1012.91
2019-01-05T07:26:03.636Z,1012.96
2019-01-05T07:27:03.623Z,1013.02
2019-01-05T07:28:03.615Z,1012.96
2019-01-05T07:29:03.610Z,1012.97
2019-01-05T07:30:03.592Z,1012.97
2019-01-05T07:31:03.579Z,1012.95
2019-01-05T07:32:03.573Z,1013.00
2019-01-05T07:33:03.558Z,1013.01
2019-01-05T07:34:03.563Z,1013.11
2019-01-05T07:35:03.543Z,1013.21
2019-01-05T07:36:03.527Z,1013.23
2019-01-05T07:37:03.511Z,1013.27
2019-01-05T07:38:03.505Z,1013.31
2019-01-05T07:39:03.508Z,1013.33
2019-01-05T07:40:03.486Z,1013.32
2019-01-05T07:41:03.477Z,1013.27
2019-01-05T07:42:03.460Z,1013.31
2019-01-05T07:43:03.448Z,1013.38
2019-01-05T07:44:03.461Z,1013.30
2019-01-05T07:45:03.427Z,1013.31
2019-01-05T07:46:03.424Z,1013.33
2019-01-05T07:47:06.309Z,1013.41
2019-01-05T07:48:03.399Z,1013.45
2019-01-05T07:49:03.405Z,1013.41
2019-01-05T07:50:03.381Z,1013.49
2019-01-05T07:51:03.371Z,1013.50
2019-01-05T07:52:03.357Z,1013.48
2019-01-05T07:53:03.351Z,1013.52
2019-01-05T07:54:03.346Z,1013.52
2019-01-05T07:55:03.325Z,1013.57
2019-01-05T07:56:03.320Z,1013.55
2019-01-05T07:57:03.307Z,1013.52
2019-01-05T07:58:03.296Z,1013.52
2019-01-05T07:59:03.303Z,1013.58
2019-01-05T08:00:03.275Z,1013.58
2019-01-05T08:01:03.280Z,1013.50
2019-01-05T08:02:03.251Z,1013.58
2019-01-05T08:03:03.243Z,1013.60
2019-01-05T08:04:03.246Z,1013.68
2019-01-05T08:05:03.220Z,1013.73
2019-01-05T08:06:03.208Z,1013.72
2019-01-05T08:07:03.203Z,1013.78
2019-01-05T08:08:03.192Z,1013.80
2019-01-05T08:09:03.197Z,1013.86
2019-01-05T08:10:03.175Z,1013.77
2019-01-05T08:11:03.167Z,1013.76
2019-01-05T08:12:03.154Z,1013.73
2019-01-05T08:13:03.140Z,1013.70
2019-01-05T08:14:03.151Z,1013.76
2019-01-05T08:15:03.117Z,1013.71
2019-01-05T08:16:03.107Z,1013.68
2019-01-05T08:17:03.094Z,1013.77
2019-01-05T08:18:03.087Z,1013.77
2019-01-05T08:19:03.102Z,1013.75
2019-01-05T08:20:03.071Z,1013.80
2019-01-05T08:21:03.058Z,1013.76
2019-01-05T08:22:03.045Z,1013.79
2019-01-05T08:23:03.032Z,1013.81
2019-01-05T08:24:03.024Z,1013.81
2019-01-05T08:25:03.027Z,1013.76
2019-01-05T08:26:03.002Z,1013.86
2019-01-05T08:27:03.000Z,1013.80
2019-01-05T08:28:02.987Z,1013.85
2019-01-05T08:29:02.968Z,1013.80
2019-01-05T08:30:03.320Z,1013.84
2019-01-05T08:31:02.954Z,1013.79
2019-01-05T08:32:02.956Z,1013.79
2019-01-05T08:33:02.928Z,1013.73
2019-01-05T08:34:02.922Z,1013.75
2019-01-05T08:35:02.924Z,1013.78
2019-01-05T08:36:02.903Z,1013.75
2019-01-05T08:37:02.889Z,1013.83
2019-01-05T08:38:02.881Z,1013.82
2019-01-05T08:39:02.872Z,1013.78
2019-01-05T08:40:02.883Z,1013.80
2019-01-05T08:41:02.849Z,1013.79
2019-01-05T08:42:02.838Z,1013.77
2019-01-05T08:43:02.824Z,1013.80
2019-01-05T08:44:02.813Z,1013.84
2019-01-05T08:45:02.812Z,1013.86
2019-01-05T08:46:02.809Z,1013.92
2019-01-05T08:47:02.782Z,1013.93
2019-01-05T08:48:02.772Z,1013.96
2019-01-05T08:49:02.764Z,1013.98
2019-01-05T08:50:02.751Z,1014.00
2019-01-05T08:51:02.754Z,1013.99
2019-01-05T08:52:02.733Z,1013.93
2019-01-05T08:53:02.721Z,1013.96
2019-01-05T08:54:02.721Z,1014.00
2019-01-05T08:55:02.704Z,1014.01
2019-01-05T08:56:02.710Z,1014.03
2019-01-05T08:57:02.683Z,1014.05
2019-01-05T08:58:02.670Z,1014.02
2019-01-05T08:59:02.665Z,1014.04
2019-01-05T09:00:02.647Z,1014.10
2019-01-05T09:01:02.654Z,1014.05
2019-01-05T09:02:02.629Z,1014.06
2019-01-05T09:03:02.624Z,1014.11
2019-01-05T09:04:02.615Z,1014.06
2019-01-05T09:05:02.600Z,1014.12
2019-01-05T09:06:02.597Z,1014.09
2019-01-05T09:07:02.576Z,1014.13
2019-01-05T09:08:02.571Z,1014.14
2019-01-05T09:09:02.556Z,1014.17
2019-01-05T09:10:02.554Z,1014.18
2019-01-05T09:11:02.548Z,1014.15
2019-01-05T09:12:02.527Z,1014.14
2019-01-05T09:13:02.518Z,1014.19
2019-01-05T09:14:02.504Z,1014.20
2019-01-05T09:15:02.494Z,1014.16
2019-01-05T09:16:02.496Z,1014.12
2019-01-05T09:17:02.475Z,1014.13
2019-01-05T09:18:02.465Z,1014.14
2019-01-05T09:19:02.454Z,1014.14
2019-01-05T09:20:02.447Z,1014.14
2019-01-05T09:21:02.447Z,1014.14
2019-01-05T09:22:02.422Z,1014.09
2019-01-05T09:23:02.412Z,1014.16
2019-01-05T09:24:02.407Z,1014.14
2019-01-05T09:25:02.402Z,1014.18
2019-01-05T09:26:02.423Z,1014.20
2019-01-05T09:27:02.371Z,1014.22
2019-01-05T09:28:02.370Z,1014.26
2019-01-05T09:29:02.351Z,1014.25
2019-01-05T09:30:02.339Z,1014.20
2019-01-05T09:31:02.331Z,1014.20
2019-01-05T09:32:02.333Z,1014.20
2019-01-05T09:33:02.312Z,1014.21
2019-01-05T09:34:02.294Z,1014.16
2019-01-05T09:35:02.290Z,1014.21
2019-01-05T09:36:02.273Z,1014.18
2019-01-05T09:37:02.274Z,1014.21
2019-01-05T09:38:02.254Z,1014.21
2019-01-05T09:39:02.256Z,1014.26
2019-01-05T09:40:02.231Z,1014.20
2019-01-05T09:41:02.222Z,1014.23
2019-01-05T09:42:02.236Z,1014.24
2019-01-05T09:43:02.205Z,1014.23
2019-01-05T09:44:02.194Z,1014.22
2019-01-05T09:45:02.186Z,1014.24
2019-01-05T09:46:02.175Z,1014.24
2019-01-05T09:47:02.182Z,1014.23
2019-01-05T09:48:02.148Z,1014.33
2019-01-05T09:49:02.144Z,1014.23
2019-01-05T09:50:02.140Z,1014.31
2019-01-05T09:51:02.122Z,1014.33
2019-01-05T09:52:02.125Z,1014.30
2019-01-05T09:53:02.096Z,1014.32
2019-01-05T09:54:02.091Z,1014.35
2019-01-05T09:55:02.082Z,1014.27
2019-01-05T09:56:02.066Z,1014.26
2019-01-05T09:57:02.074Z,1014.29
2019-01-05T09:58:02.052Z,1014.30
2019-01-05T09:59:02.038Z,1014.39
2019-01-05T10:00:02.024Z,1014.45
2019-01-05T10:01:02.015Z,1014.43
2019-01-05T10:02:02.020Z,1014.40
2019-01-05T10:03:01.996Z,1014.37
2019-01-05T10:04:01.984Z,1014.41
2019-01-05T10:05:01.982Z,1014.32
2019-01-05T10:06:01.965Z,1014.35
2019-01-05T10:07:01.969Z,1014.35
2019-01-05T10:08:01.943Z,1014.37
2019-01-05T10:09:01.930Z,1014.37
2019-01-05T10:10:01.931Z,1014.43
2019-01-05T10:11:01.926Z,1014.37
2019-01-05T10:12:01.916Z,1014.39
2019-01-05T10:13:01.894Z,1014.35
2019-01-05T10:14:01.881Z,1014.31
2019-01-05T10:15:01.872Z,1014.32
2019-01-05T10:16:01.854Z,1014.30
2019-01-05T10:17:01.872Z,1014.32
2019-01-05T10:18:01.999Z,1014.34
2019-01-05T10:19:01.827Z,1014.38
2019-01-05T10:20:01.850Z,1014.31
2019-01-05T10:21:01.805Z,1014.32
2019-01-05T10:22:01.828Z,1014.29
2019-01-05T10:23:01.790Z,1014.28
2019-01-05T10:24:01.783Z,1014.28
2019-01-05T10:25:01.764Z,1014.22
2019-01-05T10:26:01.761Z,1014.26
2019-01-05T10:27:01.754Z,1014.23
2019-01-05T10:28:01.748Z,1014.21
2019-01-05T10:29:01.723Z,1014.23
2019-01-05T10:30:01.720Z,1014.21
2019-01-05T10:31:01.706Z,1014.31
2019-01-05T10:32:01.696Z,1014.31
2019-01-05T10:33:01.699Z,1014.30
2019-01-05T10:34:01.672Z,1014.25
2019-01-05T10:35:01.666Z,1014.25
2019-01-05T10:36:01.653Z,1014.24
2019-01-05T10:37:01.645Z,1014.21
2019-01-05T10:38:01.645Z,1014.24
2019-01-05T10:39:01.617Z,1014.27
2019-01-05T10:40:01.611Z,1014.27
2019-01-05T10:41:02.764Z,1014.25
2019-01-05T10:42:01.590Z,1014.27
2019-01-05T10:43:01.598Z,1014.28
2019-01-05T10:44:01.566Z,1014.31
2019-01-05T10:45:01.557Z,1014.32
2019-01-05T10:46:01.544Z,1014.30
2019-01-05T10:47:01.539Z,1014.26
2019-01-05T10:48:01.547Z,1014.28
2019-01-05T10:49:01.527Z,1014.28
2019-01-05T10:50:01.509Z,1014.30
2019-01-05T10:51:01.495Z,1014.28
2019-01-05T10:52:01.486Z,1014.30
2019-01-05T10:53:01.487Z,1014.31
2019-01-05T10:54:01.460Z,1014.37
2019-01-05T10:55:01.449Z,1014.43
2019-01-05T10:56:01.443Z,1014.44
2019-01-05T10:57:01.434Z,1014.39
2019-01-05T10:58:01.452Z,1014.39
2019-01-05T10:59:01.412Z,1014.40
2019-01-05T11:00:01.403Z,1014.44
2019-01-05T11:01:01.396Z,1014.44
2019-01-05T11:02:01.377Z,1014.43
2019-01-05T11:03:01.400Z,1014.45
2019-01-05T11:04:01.358Z,1014.48
2019-01-05T11:05:01.350Z,1014.50
2019-01-05T11:06:01.337Z,1014.49
2019-01-05T11:07:01.329Z,1014.52
2019-01-05T11:08:01.320Z,1014.48
2019-01-05T11:09:01.328Z,1014.47
2019-01-05T11:10:01.299Z,1014.47
2019-01-05T11:11:01.287Z,1014.51
2019-01-05T11:12:01.275Z,1014.49
2019-01-05T11:13:01.263Z,1014.53
2019-01-05T11:14:01.283Z,1014.48
2019-01-05T11:15:01.247Z,1014.53
2019-01-05T11:16:01.242Z,1014.55
2019-01-05T11:17:01.222Z,1014.59
2019-01-05T11:18:01.210Z,1014.56
2019-01-05T11:19:01.213Z,1014.60
2019-01-05T11:20:01.191Z,1014.58
2019-01-05T11:21:01.182Z,1014.57
2019-01-05T11:22:01.179Z,1014.64
2019-01-05T11:23:01.170Z,1014.61
2019-01-05T11:24:01.165Z,1014.67
2019-01-05T11:25:01.144Z,1014.70
2019-01-05T11:26:01.126Z,1014.67
2019-01-05T11:27:01.118Z,1014.72
2019-01-05T11:28:01.127Z,1014.68
2019-01-05T11:29:01.116Z,1014.73
2019-01-05T11:30:01.097Z,1014.68
2019-01-05T11:31:01.078Z,1014.64
2019-01-05T11:32:01.087Z,1014.67
2019-01-05T11:33:01.065Z,1014.60
2019-01-05T11:34:01.059Z,1014.63
2019-01-05T11:35:01.032Z,1014.62
2019-01-05T11:36:01.035Z,1014.65
2019-01-05T11:37:01.014Z,1014.66
2019-01-05T11:38:01.007Z,1014.66
2019-01-05T11:39:01.013Z,1014.64
2019-01-05T11:40:00.995Z,1014.66
2019-01-05T11:41:00.985Z,1014.65
2019-01-05T11:42:00.976Z,1014.71
2019-01-05T11:43:00.969Z,1014.70
2019-01-05T11:44:00.959Z,1014.64
2019-01-05T11:45:00.942Z,1014.66
2019-01-05T11:46:00.936Z,1014.72
2019-01-05T11:47:00.916Z,1014.72
2019-01-05T11:48:00.899Z,1014.67
2019-01-05T11:49:00.914Z,1014.68
2019-01-05T11:50:00.880Z,1014.70
2019-01-05T11:51:00.878Z,1014.65
2019-01-05T11:52:00.856Z,1014.66
2019-01-05T11:53:00.850Z,1014.65
2019-01-05T11:54:00.870Z,1014.64
2019-01-05T11:55:00.836Z,1014.72
2019-01-05T11:56:00.819Z,1014.67
2019-01-05T11:57:00.804Z,1014.64
2019-01-05T11:58:00.809Z,1014.68
2019-01-05T11:59:00.810Z,1014.73
2019-01-05T12:00:00.786Z,1014.76
2019-01-05T12:01:00.765Z,1014.72
2019-01-05T12:02:00.752Z,1014.73
2019-01-05T12:03:00.745Z,1014.70
2019-01-05T12:04:00.734Z,1014.73
2019-01-05T12:05:00.750Z,1014.76